createdAt,value
2023-03-06T00:01:54.718Z,1.80
2023-03-06T00:04:21.620Z,1.80
2023-03-06T00:06:48.489Z,1.80
2023-03-06T00:09:15.129Z,1.70
2023-03-06T00:11:42.089Z,1.80
2023-03-06T00:14:08.799Z,1.80
2023-03-06T00:16:35.556Z,1.80
2023-03-06T00:19:02.232Z,1.70
2023-03-06T00:21:28.886Z,1.80
2023-03-06T00:23:55.604Z,1.70
2023-03-06T00:26:22.517Z,1.80
2023-03-06T00:28:49.188Z,1.70
2023-03-06T00:31:17.181Z,1.80
2023-03-06T00:33:44.088Z,1.70
2023-03-06T00:36:10.861Z,1.70
2023-03-06T00:38:37.547Z,1.70
2023-03-06T00:41:11.264Z,1.70
2023-03-06T00:43:37.988Z,1.70
2023-03-06T00:46:05.779Z,1.70
2023-03-06T00:48:34.420Z,1.70
2023-03-06T00:51:03.684Z,1.70
2023-03-06T00:53:30.592Z,1.70
2023-03-06T00:55:57.348Z,1.70
2023-03-06T00:58:24.064Z,1.70
2023-03-06T01:00:51.045Z,1.70
2023-03-06T01:03:17.778Z,1.70
2023-03-06T01:05:44.562Z,1.70
2023-03-06T01:08:11.239Z,1.70
2023-03-06T01:10:40.614Z,1.70
2023-03-06T01:13:07.446Z,1.70
2023-03-06T01:15:34.159Z,1.70
2023-03-06T01:18:00.900Z,1.60
2023-03-06T01:20:28.401Z,1.60
2023-03-06T01:22:56.835Z,1.60
2023-03-06T01:25:24.484Z,1.60
2023-03-06T01:27:51.528Z,1.60
2023-03-06T01:30:18.212Z,1.60
2023-03-06T01:32:45.164Z,1.60
2023-03-06T01:35:12.598Z,1.60
2023-03-06T01:37:40.181Z,1.60
2023-03-06T01:40:08.291Z,1.50
2023-03-06T01:42:34.944Z,1.60
2023-03-06T01:45:08.010Z,1.50
2023-03-06T01:47:34.720Z,1.50
2023-03-06T01:50:03.842Z,1.50
2023-03-06T01:52:36.331Z,1.50
2023-03-06T01:55:05.403Z,1.50
2023-03-06T01:57:41.119Z,1.50
2023-03-06T02:00:12.892Z,1.50
2023-03-06T02:02:40.761Z,1.50
2023-03-06T02:05:08.449Z,1.50
2023-03-06T02:07:36.303Z,1.50
2023-03-06T02:10:03.046Z,1.40
2023-03-06T02:12:30.346Z,1.40
2023-03-06T02:14:57.055Z,1.50
2023-03-06T02:17:24.138Z,1.40
2023-03-06T02:20:09.887Z,1.40
2023-03-06T02:22:39.543Z,1.40
2023-03-06T02:25:32.791Z,1.40
2023-03-06T02:27:59.824Z,1.40
2023-03-06T02:30:27.247Z,1.30
2023-03-06T02:32:54.104Z,1.30
2023-03-06T02:35:25.655Z,1.30
2023-03-06T02:37:52.805Z,1.30
2023-03-06T02:40:20.638Z,1.30
2023-03-06T02:42:48.853Z,1.30
2023-03-06T02:45:19.473Z,1.30
2023-03-06T02:47:47.222Z,1.30
2023-03-06T02:50:13.941Z,1.30
2023-03-06T02:52:40.875Z,1.30
2023-03-06T02:55:08.081Z,1.30
2023-03-06T02:57:34.697Z,1.30
2023-03-06T03:00:01.608Z,1.30
2023-03-06T03:02:28.245Z,1.20
2023-03-06T03:04:55.311Z,1.20
2023-03-06T03:07:22.057Z,1.20
2023-03-06T03:09:49.102Z,1.20
2023-03-06T03:12:15.798Z,1.20
2023-03-06T03:14:42.755Z,1.20
2023-03-06T03:17:09.784Z,1.20
2023-03-06T03:19:36.604Z,1.20
2023-03-06T03:22:03.235Z,1.10
2023-03-06T03:24:30.187Z,1.20
2023-03-06T03:26:57.105Z,1.10
2023-03-06T03:29:26.596Z,1.10
2023-03-06T03:31:53.454Z,1.10
2023-03-06T03:34:20.672Z,1.10
2023-03-06T03:36:47.538Z,1.00
2023-03-06T03:39:14.719Z,1.00
2023-03-06T03:41:41.716Z,1.00
2023-03-06T03:44:08.575Z,1.00
2023-03-06T03:46:35.745Z,0.90
2023-03-06T03:49:02.565Z,0.90
2023-03-06T03:51:29.387Z,0.90
2023-03-06T03:53:58.330Z,0.80
2023-03-06T03:56:25.051Z,0.80
2023-03-06T03:58:51.842Z,0.80
2023-03-06T04:01:18.822Z,0.80
2023-03-06T04:03:45.496Z,0.80
2023-03-06T04:06:12.121Z,0.70
2023-03-06T04:08:38.742Z,0.70
2023-03-06T04:11:05.681Z,0.70
2023-03-06T04:13:32.373Z,0.70
2023-03-06T04:15:59.911Z,0.60
2023-03-06T04:18:27.008Z,0.60
2023-03-06T04:20:56.326Z,0.60
2023-03-06T04:23:24.402Z,0.60
2023-03-06T04:25:51.159Z,0.60
2023-03-06T04:28:18.064Z,0.60
2023-03-06T04:30:44.920Z,0.60
2023-03-06T04:33:11.679Z,0.60
2023-03-06T04:35:38.805Z,0.60
2023-03-06T04:38:05.561Z,0.50
2023-03-06T04:40:34.004Z,0.60
2023-03-06T04:43:01.725Z,0.50
2023-03-06T04:45:28.758Z,0.50
2023-03-06T04:47:55.849Z,0.50
2023-03-06T04:50:22.642Z,0.50
2023-03-06T04:52:49.779Z,0.50
2023-03-06T04:55:17.032Z,0.50
2023-03-06T04:57:44.616Z,0.50
2023-03-06T05:00:14.453Z,0.50
2023-03-06T05:02:42.458Z,0.50
2023-03-06T05:05:09.574Z,0.50
2023-03-06T05:07:36.469Z,0.50
2023-03-06T05:10:04.331Z,0.50
2023-03-06T05:12:31.292Z,0.50
2023-03-06T05:14:59.308Z,0.50
2023-03-06T05:17:26.193Z,0.50
2023-03-06T05:19:54.843Z,0.50
2023-03-06T05:22:21.781Z,0.50
2023-03-06T05:24:48.497Z,0.50
2023-03-06T05:27:16.945Z,0.50
2023-03-06T05:29:44.008Z,0.60
2023-03-06T05:32:12.543Z,0.60
2023-03-06T05:34:39.834Z,0.60
2023-03-06T05:37:06.444Z,0.60
2023-03-06T05:39:33.382Z,0.60
2023-03-06T05:42:00.057Z,0.60
2023-03-06T05:44:33.633Z,0.60
2023-03-06T05:47:00.899Z,0.60
2023-03-06T05:49:31.684Z,0.60
2023-03-06T05:51:58.613Z,0.60
2023-03-06T05:54:26.731Z,0.60
2023-03-06T05:56:53.587Z,0.60
2023-03-06T05:59:20.424Z,0.60
2023-03-06T06:01:47.395Z,0.60
2023-03-06T06:04:14.285Z,0.60
2023-03-06T06:06:41.114Z,0.60
2023-03-06T06:09:07.975Z,0.60
2023-03-06T06:11:34.828Z,0.60
2023-03-06T06:14:01.732Z,0.70
2023-03-06T06:16:28.364Z,0.70
2023-03-06T06:18:54.989Z,0.70
2023-03-06T06:21:21.719Z,0.70
2023-03-06T06:23:48.428Z,0.80
2023-03-06T06:26:15.355Z,0.80
2023-03-06T06:28:42.165Z,0.80
2023-03-06T06:31:10.972Z,0.90
2023-03-06T06:33:38.398Z,0.90
2023-03-06T06:36:14.277Z,0.90
2023-03-06T06:38:40.882Z,1.00
2023-03-06T06:41:36.085Z,1.00
2023-03-06T06:43:59.014Z,1.10
2023-03-06T06:47:17.882Z,1.10
2023-03-06T06:49:14.422Z,1.20
2023-03-06T06:51:41.359Z,1.30
2023-03-06T06:54:08.739Z,1.30
2023-03-06T06:56:35.664Z,1.40
2023-03-06T06:59:15.761Z,1.50
2023-03-06T07:01:43.289Z,1.60
2023-03-06T07:04:11.813Z,1.70
2023-03-06T07:06:38.710Z,1.80
2023-03-06T07:09:08.044Z,1.90
2023-03-06T07:11:34.736Z,2.00
2023-03-06T07:14:02.080Z,2.10
2023-03-06T07:16:28.946Z,2.20
2023-03-06T07:18:55.679Z,2.30
2023-03-06T07:21:22.517Z,2.30
2023-03-06T07:23:49.361Z,2.40
2023-03-06T07:26:16.044Z,2.50
2023-03-06T07:28:52.030Z,2.50
2023-03-06T07:31:22.330Z,2.60
2023-03-06T07:33:49.969Z,2.70
2023-03-06T07:36:17.061Z,2.80
2023-03-06T07:38:44.055Z,2.90
2023-03-06T07:41:13.608Z,3.00
2023-03-06T07:43:41.537Z,3.00
2023-03-06T07:46:08.637Z,3.10
2023-03-06T07:48:36.308Z,3.20
2023-03-06T07:51:04.894Z,3.30
2023-03-06T07:53:32.414Z,3.40
2023-03-06T07:56:00.324Z,3.50
2023-03-06T07:58:26.983Z,3.60
2023-03-06T08:00:55.052Z,3.80
2023-03-06T08:03:21.652Z,3.90
2023-03-06T08:05:48.472Z,4.10
2023-03-06T08:08:15.095Z,4.20
2023-03-06T08:10:47.343Z,4.30
2023-03-06T08:13:15.403Z,4.40
2023-03-06T08:15:46.882Z,4.50
2023-03-06T08:18:13.479Z,4.60
2023-03-06T08:20:40.332Z,4.60
2023-03-06T08:23:07.042Z,4.80
2023-03-06T08:25:33.909Z,4.80
2023-03-06T08:28:01.132Z,4.90
2023-03-06T08:30:27.964Z,5.00
2023-03-06T08:32:54.636Z,5.20
2023-03-06T08:35:21.405Z,5.30
2023-03-06T08:37:48.218Z,5.40
2023-03-06T08:40:14.824Z,5.60
2023-03-06T08:42:44.254Z,5.70
2023-03-06T08:45:11.001Z,5.80
2023-03-06T08:47:37.946Z,5.90
2023-03-06T08:50:07.162Z,6.00
2023-03-06T08:52:33.833Z,6.10
2023-03-06T08:55:03.493Z,6.20
2023-03-06T08:57:30.668Z,6.20
2023-03-06T08:59:57.666Z,6.20
2023-03-06T09:02:24.547Z,6.20
2023-03-06T09:04:51.476Z,6.20
2023-03-06T09:07:18.628Z,6.30
2023-03-06T09:09:45.362Z,6.30
2023-03-06T09:12:12.377Z,6.30
2023-03-06T09:14:39.015Z,6.30
2023-03-06T09:17:05.864Z,6.30
2023-03-06T09:19:32.709Z,6.30
2023-03-06T09:22:01.570Z,6.30
2023-03-06T09:24:28.376Z,6.30
2023-03-06T09:26:56.214Z,6.40
2023-03-06T09:29:23.082Z,6.40
2023-03-06T09:31:50.179Z,6.50
2023-03-06T09:34:16.792Z,6.60
2023-03-06T09:36:56.025Z,6.60
2023-03-06T09:39:24.012Z,6.70
2023-03-06T09:41:51.443Z,6.70
2023-03-06T09:44:24.994Z,6.90
2023-03-06T09:47:01.470Z,7.00
2023-03-06T09:49:47.849Z,7.00
2023-03-06T09:52:30.250Z,6.90
2023-03-06T09:54:59.100Z,7.00
2023-03-06T09:57:25.954Z,7.00
2023-03-06T09:59:54.305Z,6.90
2023-03-06T10:02:24.886Z,6.80
2023-03-06T10:04:59.481Z,6.80
2023-03-06T10:07:33.523Z,6.80
2023-03-06T10:10:02.093Z,6.80
2023-03-06T10:12:35.229Z,6.80
2023-03-06T10:15:16.897Z,6.80
2023-03-06T10:17:43.796Z,6.80
2023-03-06T10:20:24.434Z,6.70
2023-03-06T10:23:00.996Z,6.60
2023-03-06T10:25:48.572Z,6.50
2023-03-06T10:28:21.151Z,6.50
2023-03-06T10:30:50.636Z,6.50
2023-03-06T10:33:17.568Z,6.50
2023-03-06T10:35:49.752Z,6.60
2023-03-06T10:38:19.702Z,6.60
2023-03-06T10:41:07.654Z,6.60
2023-03-06T10:43:44.581Z,6.60
2023-03-06T10:46:13.111Z,6.80
2023-03-06T10:48:42.376Z,6.80
2023-03-06T10:51:18.469Z,6.80
2023-03-06T10:53:50.299Z,6.80
2023-03-06T10:56:26.371Z,6.80
2023-03-06T10:59:12.678Z,6.80
2023-03-06T11:01:41.043Z,6.90
2023-03-06T11:04:28.115Z,7.00
2023-03-06T11:07:15.304Z,7.00
2023-03-06T11:09:43.282Z,7.10
2023-03-06T11:12:26.563Z,7.10
2023-03-06T11:15:12.534Z,7.20
2023-03-06T11:17:50.420Z,7.30
2023-03-06T11:20:35.762Z,7.40
2023-03-06T11:23:12.324Z,7.40
2023-03-06T11:25:48.275Z,7.50
2023-03-06T11:28:23.926Z,7.60
2023-03-06T11:30:59.565Z,7.60
2023-03-06T11:33:34.026Z,7.60
2023-03-06T11:36:05.544Z,7.80
2023-03-06T11:38:49.127Z,7.80
2023-03-06T11:41:36.011Z,7.70
2023-03-06T11:44:06.551Z,7.70
2023-03-06T11:46:36.606Z,7.80
2023-03-06T11:49:12.480Z,7.70
2023-03-06T11:51:42.068Z,7.80
2023-03-06T11:54:09.730Z,7.80
2023-03-06T11:56:44.357Z,7.80
2023-03-06T11:59:14.296Z,7.80
2023-03-06T12:01:43.956Z,7.80
2023-03-06T12:04:23.555Z,7.80
2023-03-06T12:07:08.567Z,7.70
2023-03-06T12:09:38.528Z,7.80
2023-03-06T12:12:08.321Z,7.90
2023-03-06T12:14:37.835Z,7.90
2023-03-06T12:17:18.921Z,7.90
2023-03-06T12:19:49.957Z,8.00
2023-03-06T12:22:16.737Z,8.20
2023-03-06T12:25:00.814Z,8.40
2023-03-06T12:27:42.345Z,8.40
2023-03-06T12:30:38.358Z,8.40
2023-03-06T12:33:05.129Z,8.30
2023-03-06T12:35:44.179Z,8.30
2023-03-06T12:38:23.543Z,8.20
2023-03-06T12:40:50.114Z,8.00
2023-03-06T12:43:35.576Z,7.90
2023-03-06T12:46:11.767Z,7.70
2023-03-06T12:48:39.433Z,7.60
2023-03-06T12:51:07.142Z,7.60
2023-03-06T12:53:34.433Z,7.50
2023-03-06T12:56:01.981Z,7.30
2023-03-06T12:58:29.132Z,7.30
2023-03-06T13:01:04.201Z,7.20
2023-03-06T13:03:31.286Z,7.10
2023-03-06T13:06:03.852Z,7.00
2023-03-06T13:08:30.447Z,6.90
2023-03-06T13:11:03.514Z,6.70
2023-03-06T13:13:41.138Z,6.70
2023-03-06T13:16:37.167Z,6.60
2023-03-06T13:19:10.558Z,6.60
2023-03-06T13:21:43.557Z,6.60
2023-03-06T13:24:22.404Z,6.70
2023-03-06T13:26:58.410Z,6.70
2023-03-06T13:29:37.530Z,6.80
2023-03-06T13:32:07.954Z,6.80
2023-03-06T13:34:36.149Z,6.90
2023-03-06T13:37:23.354Z,7.10
2023-03-06T13:39:55.817Z,7.30
2023-03-06T13:42:28.465Z,7.40
2023-03-06T13:44:55.970Z,7.50
2023-03-06T13:47:28.863Z,7.70
2023-03-06T13:49:57.063Z,7.70
2023-03-06T13:52:39.901Z,7.70
2023-03-06T13:55:15.047Z,7.70
2023-03-06T13:57:51.027Z,7.70
2023-03-06T14:00:36.509Z,7.70
2023-03-06T14:03:03.386Z,7.60
2023-03-06T14:05:49.377Z,7.40
2023-03-06T14:08:18.397Z,7.30
2023-03-06T14:10:48.199Z,7.30
2023-03-06T14:13:16.657Z,7.20
2023-03-06T14:15:45.012Z,7.10
2023-03-06T14:18:14.436Z,7.00
2023-03-06T14:20:46.701Z,7.00
2023-03-06T14:23:35.565Z,6.90
2023-03-06T14:26:15.607Z,6.90
2023-03-06T14:28:43.389Z,7.00
2023-03-06T14:31:18.447Z,6.90
2023-03-06T14:33:56.613Z,6.90
2023-03-06T14:36:26.141Z,7.00
2023-03-06T14:38:54.039Z,7.00
2023-03-06T14:41:31.910Z,7.00
2023-03-06T14:44:07.706Z,7.00
2023-03-06T14:46:34.405Z,6.90
2023-03-06T14:49:01.156Z,6.90
2023-03-06T14:51:28.231Z,6.80
2023-03-06T14:54:00.634Z,6.80
2023-03-06T14:56:27.487Z,6.70
2023-03-06T14:58:54.105Z,6.70
2023-03-06T15:01:27.895Z,6.60
2023-03-06T15:03:58.150Z,6.60
2023-03-06T15:06:35.666Z,6.50
2023-03-06T15:09:07.585Z,6.40
2023-03-06T15:11:55.198Z,6.40
2023-03-06T15:14:28.522Z,6.40
2023-03-06T15:16:55.381Z,6.30
2023-03-06T15:19:22.110Z,6.30
2023-03-06T15:21:51.793Z,6.30
2023-03-06T15:24:32.455Z,6.30
2023-03-06T15:27:01.243Z,6.20
2023-03-06T15:29:29.128Z,6.20
2023-03-06T15:32:19.288Z,6.20
2023-03-06T15:34:47.559Z,6.10
2023-03-06T15:37:27.187Z,6.10
2023-03-06T15:40:09.245Z,6.10
2023-03-06T15:42:36.707Z,6.10
2023-03-06T15:45:15.757Z,6.00
2023-03-06T15:47:43.388Z,6.00
2023-03-06T15:50:14.918Z,6.00
2023-03-06T15:52:42.447Z,5.90
2023-03-06T15:55:12.170Z,5.90
2023-03-06T15:57:43.621Z,5.80
2023-03-06T16:00:27.064Z,5.80
2023-03-06T16:02:55.149Z,5.80
2023-03-06T16:05:22.269Z,5.80
2023-03-06T16:07:49.187Z,5.80
2023-03-06T16:10:20.212Z,5.70
2023-03-06T16:12:51.330Z,5.70
2023-03-06T16:15:22.495Z,5.70
2023-03-06T16:17:52.087Z,5.60
2023-03-06T16:20:20.667Z,5.50
2023-03-06T16:22:48.392Z,5.50
2023-03-06T16:25:15.545Z,5.50
2023-03-06T16:27:43.108Z,5.50
2023-03-06T16:30:16.298Z,5.40
2023-03-06T16:32:43.594Z,5.40
2023-03-06T16:35:11.350Z,5.30
2023-03-06T16:37:38.913Z,5.30
2023-03-06T16:40:09.296Z,5.30
2023-03-06T16:42:36.099Z,5.20
2023-03-06T16:45:02.757Z,5.10
2023-03-06T16:47:30.590Z,5.10
2023-03-06T16:50:01.734Z,5.00
2023-03-06T16:52:28.766Z,4.90
2023-03-06T16:54:55.515Z,4.90
2023-03-06T16:57:22.213Z,4.80
2023-03-06T16:59:51.144Z,4.80
2023-03-06T17:02:17.801Z,4.70
2023-03-06T17:04:45.020Z,4.60
2023-03-06T17:07:11.911Z,4.60
2023-03-06T17:09:38.608Z,4.50
2023-03-06T17:12:07.033Z,4.50
2023-03-06T17:14:34.117Z,4.40
2023-03-06T17:17:01.209Z,4.40
2023-03-06T17:19:27.930Z,4.30
2023-03-06T17:21:54.572Z,4.30
2023-03-06T17:24:21.410Z,4.30
2023-03-06T17:26:48.490Z,4.20
2023-03-06T17:29:15.689Z,4.10
2023-03-06T17:31:42.282Z,4.10
2023-03-06T17:34:09.136Z,4.00
2023-03-06T17:36:35.993Z,4.00
2023-03-06T17:39:02.998Z,4.00
2023-03-06T17:41:29.924Z,4.00
2023-03-06T17:44:04.998Z,3.90
2023-03-06T17:46:32.125Z,3.90
2023-03-06T17:48:58.953Z,3.90
2023-03-06T17:51:25.881Z,3.90
2023-03-06T17:53:53.213Z,3.90
2023-03-06T17:56:19.878Z,3.90
2023-03-06T17:58:46.771Z,3.80
2023-03-06T18:01:17.788Z,3.70
2023-03-06T18:03:45.866Z,3.70
2023-03-06T18:06:12.627Z,3.70
2023-03-06T18:08:40.896Z,3.70
2023-03-06T18:11:09.911Z,3.60
2023-03-06T18:13:38.513Z,3.60
2023-03-06T18:16:05.719Z,3.50
2023-03-06T18:18:32.417Z,3.50
2023-03-06T18:21:03.386Z,3.50
2023-03-06T18:23:30.047Z,3.40
2023-03-06T18:26:08.838Z,3.40
2023-03-06T18:28:38.701Z,3.40
2023-03-06T18:31:08.571Z,3.40
2023-03-06T18:33:35.402Z,3.30
2023-03-06T18:36:03.715Z,3.30
2023-03-06T18:38:30.778Z,3.30
2023-03-06T18:40:57.605Z,3.20
2023-03-06T18:43:24.323Z,3.20
2023-03-06T18:45:57.839Z,3.20
2023-03-06T18:48:26.109Z,3.20
2023-03-06T18:50:53.814Z,3.20
2023-03-06T18:53:21.252Z,3.20
2023-03-06T18:55:49.113Z,3.20
2023-03-06T18:58:15.814Z,3.10
2023-03-06T19:00:43.415Z,3.10
2023-03-06T19:03:10.705Z,3.10
2023-03-06T19:05:48.896Z,3.00
2023-03-06T19:08:17.462Z,3.00
2023-03-06T19:10:48.678Z,3.00
2023-03-06T19:13:15.716Z,3.00
2023-03-06T19:15:46.670Z,3.00
2023-03-06T19:18:14.875Z,3.00
2023-03-06T19:20:41.724Z,2.90
2023-03-06T19:23:09.092Z,2.90
2023-03-06T19:25:36.372Z,2.90
2023-03-06T19:28:03.548Z,2.80
2023-03-06T19:30:30.202Z,2.80
2023-03-06T19:32:57.120Z,2.80
2023-03-06T19:35:24.744Z,2.80
2023-03-06T19:37:51.544Z,2.80
2023-03-06T19:40:18.434Z,2.80
2023-03-06T19:42:45.162Z,2.80
2023-03-06T19:45:12.090Z,2.80
2023-03-06T19:47:38.746Z,2.80
2023-03-06T19:50:05.545Z,2.80
2023-03-06T19:52:35.531Z,2.80
2023-03-06T19:55:03.844Z,2.80
2023-03-06T19:57:30.694Z,2.70
2023-03-06T19:59:58.625Z,2.80
2023-03-06T20:02:27.571Z,2.70
2023-03-06T20:04:54.760Z,2.70
2023-03-06T20:07:21.784Z,2.70
2023-03-06T20:09:48.576Z,2.70
2023-03-06T20:12:15.500Z,2.70
2023-03-06T20:14:42.409Z,2.70
2023-03-06T20:17:09.194Z,2.60
2023-03-06T20:19:36.515Z,2.60
2023-03-06T20:22:03.439Z,2.60
2023-03-06T20:24:30.417Z,2.60
2023-03-06T20:26:58.404Z,2.60
2023-03-06T20:29:27.968Z,2.50
2023-03-06T20:31:55.265Z,2.50
2023-03-06T20:34:22.918Z,2.50
2023-03-06T20:36:49.715Z,2.50
2023-03-06T20:39:18.106Z,2.50
2023-03-06T20:41:44.797Z,2.50
2023-03-06T20:44:16.890Z,2.50
2023-03-06T20:46:44.073Z,2.50
2023-03-06T20:49:11.843Z,2.50
2023-03-06T20:51:41.822Z,2.50
2023-03-06T20:54:11.230Z,2.50
2023-03-06T20:56:39.577Z,2.50
2023-03-06T20:59:06.601Z,2.40
2023-03-06T21:01:34.451Z,2.50
2023-03-06T21:04:04.461Z,2.40
2023-03-06T21:06:31.551Z,2.40
2023-03-06T21:08:58.680Z,2.40
2023-03-06T21:11:25.543Z,2.40
2023-03-06T21:13:53.229Z,2.40
2023-03-06T21:16:21.249Z,2.40
2023-03-06T21:18:48.190Z,2.40
2023-03-06T21:21:19.332Z,2.40
2023-03-06T21:23:47.009Z,2.40
2023-03-06T21:26:14.728Z,2.30
2023-03-06T21:28:41.666Z,2.30
2023-03-06T21:31:08.906Z,2.30
2023-03-06T21:33:36.201Z,2.30
2023-03-06T21:36:02.969Z,2.30
2023-03-06T21:38:30.937Z,2.30
2023-03-06T21:41:06.249Z,2.30
2023-03-06T21:43:33.041Z,2.30
2023-03-06T21:45:59.750Z,2.30
2023-03-06T21:48:26.344Z,2.30
2023-03-06T21:51:03.215Z,2.30
2023-03-06T21:53:29.814Z,2.30
2023-03-06T21:55:58.817Z,2.30
2023-03-06T21:58:25.474Z,2.30
2023-03-06T22:00:52.440Z,2.30
2023-03-06T22:03:19.210Z,2.30
2023-03-06T22:05:45.908Z,2.30
2023-03-06T22:08:12.907Z,2.30
2023-03-06T22:10:40.275Z,2.30
2023-03-06T22:13:07.121Z,2.30
2023-03-06T22:15:33.708Z,2.30
2023-03-06T22:18:00.514Z,2.30
2023-03-06T22:20:27.115Z,2.30
2023-03-06T22:22:54.135Z,2.30
2023-03-06T22:25:20.800Z,2.40
2023-03-06T22:27:47.525Z,2.30
2023-03-06T22:30:14.260Z,2.30
2023-03-06T22:32:40.946Z,2.30
2023-03-06T22:35:07.799Z,2.30
2023-03-06T22:37:34.467Z,2.30
2023-03-06T22:40:01.308Z,2.30
2023-03-06T22:42:28.606Z,2.30
2023-03-06T22:44:55.480Z,2.30
2023-03-06T22:47:22.103Z,2.30
2023-03-06T22:49:48.731Z,2.30
2023-03-06T22:52:15.440Z,2.30
2023-03-06T22:54:42.214Z,2.20
2023-03-06T22:57:08.826Z,2.30
2023-03-06T22:59:35.453Z,2.30
2023-03-06T23:02:02.142Z,2.20
2023-03-06T23:04:29.108Z,2.30
2023-03-06T23:06:55.790Z,2.20
2023-03-06T23:09:23.303Z,2.30
2023-03-06T23:11:50.382Z,2.30
2023-03-06T23:14:18.801Z,2.30
2023-03-06T23:16:45.603Z,2.30
2023-03-06T23:19:12.483Z,2.30
2023-03-06T23:21:39.057Z,2.30
2023-03-06T23:24:09.235Z,2.30
2023-03-06T23:26:36.381Z,2.30
2023-03-06T23:29:04.247Z,2.30
2023-03-06T23:31:32.987Z,2.30
2023-03-06T23:34:00.789Z,2.20
2023-03-06T23:36:27.826Z,2.30
2023-03-06T23:38:54.848Z,2.30
2023-03-06T23:41:23.859Z,2.30
2023-03-06T23:43:52.408Z,2.30
2023-03-06T23:46:22.337Z,2.30
2023-03-06T23:48:49.344Z,2.30
2023-03-06T23:51:18.191Z,2.30
2023-03-06T23:53:46.636Z,2.20
2023-03-06T23:56:13.729Z,2.20
2023-03-06T23:58:40.931Z,2.20
